PWSweather.com
Personal Weather Stations
Station Observations
K4FB1
Clubhouse Heritage, Lakeland, FL 33812

Clubhouse HeritageLakeland, FL 33812

Lat: 27.969224, Lon: -81.897769

Elevation: 145

Station Type: Davis Vantage Pro2

http://www.ClubhouseWX.com

High Low Average
Temperature 92.3°F33.5°C 76.5°F24.7°C 81.0°F27.2°C
Dew Point 81.2°F27.3°C 74.2°F23.4°C 76.2°F24.6°C
Winds 10.0 mph 16.1 kmh 1.0 mph 1.6 kmh 4.0 mph WSW6.4 kmh WSW
Wind Gusts 24.0 mph38.6 kmh 4.0 mph6.4 kmh 9.0 mph14.5 kmh
Humidity 95% 65% 86%
Pressure 29.86 in1011.2 mb 29.75 in1007.5 mb -
Precipitation 0.10 in2.5 mm - -
Hour Temp Dew Point Humidity Winds Wind Gusts Pressure Precip Precip Rate Daily Precip Total
12:00 AM 77.7°F25.4°C 75.2°F24.0°C 92% 3.0 mph N4.8 kmh N 8.0 mph12.9 kmh 29.86 in1011.2 mb 0.00 in0.0 mm 0.00 in0.0 mm 0.00 in0.0 mm
12:05 AM 77.6°F25.3°C 75.1°F23.9°C 92% 3.0 mph N4.8 kmh N 6.0 mph9.7 kmh 29.86 in1011.2 mb 0.00 in0.0 mm 0.00 in0.0 mm 0.00 in0.0 mm
12:10 AM 77.6°F25.3°C 75.1°F23.9°C 92% 2.0 mph N3.2 kmh N 5.0 mph8.0 kmh 29.86 in1011.2 mb 0.00 in0.0 mm 0.00 in0.0 mm 0.00 in0.0 mm
12:15 AM 77.5°F25.3°C 75.0°F23.9°C 92% 2.0 mph N3.2 kmh N 5.0 mph8.0 kmh 29.86 in1011.2 mb 0.00 in0.0 mm 0.00 in0.0 mm 0.00 in0.0 mm
12:20 AM 77.5°F25.3°C 75.0°F23.9°C 92% 3.0 mph N4.8 kmh N 5.0 mph8.0 kmh 29.85 in1010.8 mb 0.00 in0.0 mm 0.00 in0.0 mm 0.00 in0.0 mm
12:25 AM 77.4°F25.2°C 74.9°F23.8°C 92% 3.0 mph N4.8 kmh N 7.0 mph11.3 kmh 29.85 in1010.8 mb 0.00 in0.0 mm 0.00 in0.0 mm 0.00 in0.0 mm
12:30 AM 77.4°F25.2°C 75.2°F24.0°C 93% 3.0 mph N4.8 kmh N 7.0 mph11.3 kmh 29.85 in1010.8 mb 0.00 in0.0 mm 0.00 in0.0 mm 0.00 in0.0 mm
12:35 AM 77.4°F25.2°C 75.2°F24.0°C 93% 3.0 mph N4.8 kmh N 7.0 mph11.3 kmh 29.84 in1010.5 mb 0.00 in0.0 mm 0.00 in0.0 mm 0.00 in0.0 mm
12:40 AM 77.3°F25.2°C 75.1°F23.9°C 93% 2.0 mph N3.2 kmh N 7.0 mph11.3 kmh 29.84 in1010.5 mb 0.00 in0.0 mm 0.00 in0.0 mm 0.00 in0.0 mm
12:45 AM 77.3°F25.2°C 75.1°F23.9°C 93% 3.0 mph N4.8 kmh N 7.0 mph11.3 kmh 29.84 in1010.5 mb 0.00 in0.0 mm 0.00 in0.0 mm 0.00 in0.0 mm
12:50 AM 77.2°F25.1°C 75.0°F23.9°C 93% 2.0 mph N3.2 kmh N 8.0 mph12.9 kmh 29.84 in1010.5 mb 0.00 in0.0 mm 0.00 in0.0 mm 0.00 in0.0 mm
12:55 AM 77.3°F25.2°C 75.1°F23.9°C 93% 3.0 mph N4.8 kmh N 9.0 mph14.5 kmh 29.84 in1010.5 mb 0.00 in0.0 mm 0.00 in0.0 mm 0.00 in0.0 mm
01:00 AM 77.3°F25.2°C 75.1°F23.9°C 93% 3.0 mph N4.8 kmh N 9.0 mph14.5 kmh 29.84 in1010.5 mb 0.00 in0.0 mm 0.00 in0.0 mm 0.00 in0.0 mm
01:05 AM 77.3°F25.2°C 75.1°F23.9°C 93% 3.0 mph N4.8 kmh N 9.0 mph14.5 kmh 29.84 in1010.5 mb 0.00 in0.0 mm 0.00 in0.0 mm 0.00 in0.0 mm
01:10 AM 77.3°F25.2°C 75.1°F23.9°C 93% 3.0 mph N4.8 kmh N 9.0 mph14.5 kmh 29.84 in1010.5 mb 0.00 in0.0 mm 0.00 in0.0 mm 0.00 in0.0 mm
01:15 AM 77.3°F25.2°C 75.1°F23.9°C 93% 3.0 mph N4.8 kmh N 9.0 mph14.5 kmh 29.84 in1010.5 mb 0.00 in0.0 mm 0.00 in0.0 mm 0.00 in0.0 mm
01:20 AM 77.3°F25.2°C 75.1°F23.9°C 93% 2.0 mph N3.2 kmh N 6.0 mph9.7 kmh 29.84 in1010.5 mb 0.00 in0.0 mm 0.00 in0.0 mm 0.00 in0.0 mm
01:25 AM 77.2°F25.1°C 75.0°F23.9°C 93% 2.0 mph N3.2 kmh N 7.0 mph11.3 kmh 29.83 in1010.2 mb 0.00 in0.0 mm 0.00 in0.0 mm 0.00 in0.0 mm
01:30 AM 77.2°F25.1°C 75.0°F23.9°C 93% 2.0 mph N3.2 kmh N 7.0 mph11.3 kmh 29.83 in1010.2 mb 0.00 in0.0 mm 0.00 in0.0 mm 0.00 in0.0 mm
01:35 AM 77.2°F25.1°C 75.0°F23.9°C 93% 2.0 mph NNW3.2 kmh NNW 5.0 mph8.0 kmh 29.83 in1010.2 mb 0.00 in0.0 mm 0.00 in0.0 mm 0.00 in0.0 mm
01:40 AM 77.1°F25.1°C 74.9°F23.8°C 93% 2.0 mph NW3.2 kmh NW 8.0 mph12.9 kmh 29.82 in1009.8 mb 0.00 in0.0 mm 0.00 in0.0 mm 0.00 in0.0 mm
01:45 AM 77.1°F25.1°C 74.9°F23.8°C 93% 3.0 mph NNW4.8 kmh NNW 8.0 mph12.9 kmh 29.82 in1009.8 mb 0.00 in0.0 mm 0.00 in0.0 mm 0.00 in0.0 mm
01:50 AM 77.1°F25.1°C 74.9°F23.8°C 93% 3.0 mph NNW4.8 kmh NNW 8.0 mph12.9 kmh 29.82 in1009.8 mb 0.00 in0.0 mm 0.00 in0.0 mm 0.00 in0.0 mm
01:55 AM 77.1°F25.1°C 74.9°F23.8°C 93% 3.0 mph NNW4.8 kmh NNW 8.0 mph12.9 kmh 29.82 in1009.8 mb 0.00 in0.0 mm 0.00 in0.0 mm 0.00 in0.0 mm
02:00 AM 77.0°F25.0°C 74.8°F23.8°C 93% 2.0 mph N3.2 kmh N 6.0 mph9.7 kmh 29.81 in1009.5 mb 0.00 in0.0 mm 0.00 in0.0 mm 0.00 in0.0 mm
02:05 AM 77.0°F25.0°C 75.1°F23.9°C 94% 2.0 mph N3.2 kmh N 10.0 mph16.1 kmh 29.81 in1009.5 mb 0.00 in0.0 mm 0.00 in0.0 mm 0.00 in0.0 mm
02:10 AM 77.0°F25.0°C 75.1°F23.9°C 94% 2.0 mph N3.2 kmh N 10.0 mph16.1 kmh 29.81 in1009.5 mb 0.00 in0.0 mm 0.00 in0.0 mm 0.00 in0.0 mm
02:15 AM 77.0°F25.0°C 74.8°F23.8°C 93% 2.0 mph N3.2 kmh N 8.0 mph12.9 kmh 29.81 in1009.5 mb 0.00 in0.0 mm 0.00 in0.0 mm 0.00 in0.0 mm
02:20 AM 76.9°F24.9°C 75.0°F23.9°C 94% 2.0 mph N3.2 kmh N 5.0 mph8.0 kmh 29.81 in1009.5 mb 0.00 in0.0 mm 0.00 in0.0 mm 0.00 in0.0 mm
02:25 AM 76.9°F24.9°C 75.0°F23.9°C 94% 2.0 mph N3.2 kmh N 5.0 mph8.0 kmh 29.81 in1009.5 mb 0.00 in0.0 mm 0.00 in0.0 mm 0.00 in0.0 mm
02:30 AM 76.9°F24.9°C 75.0°F23.9°C 94% 2.0 mph N3.2 kmh N 5.0 mph8.0 kmh 29.80 in1009.1 mb 0.00 in0.0 mm 0.00 in0.0 mm 0.00 in0.0 mm
02:35 AM 76.9°F24.9°C 75.0°F23.9°C 94% 2.0 mph N3.2 kmh N 7.0 mph11.3 kmh 29.80 in1009.1 mb 0.00 in0.0 mm 0.00 in0.0 mm 0.00 in0.0 mm
02:40 AM 76.9°F24.9°C 75.0°F23.9°C 94% 2.0 mph N3.2 kmh N 8.0 mph12.9 kmh 29.80 in1009.1 mb 0.00 in0.0 mm 0.00 in0.0 mm 0.00 in0.0 mm
02:45 AM 76.9°F24.9°C 75.0°F23.9°C 94% 2.0 mph N3.2 kmh N 8.0 mph12.9 kmh 29.80 in1009.1 mb 0.00 in0.0 mm 0.00 in0.0 mm 0.00 in0.0 mm
02:50 AM 76.9°F24.9°C 75.0°F23.9°C 94% 2.0 mph N3.2 kmh N 4.0 mph6.4 kmh 29.80 in1009.1 mb 0.00 in0.0 mm 0.00 in0.0 mm 0.00 in0.0 mm
02:55 AM 76.9°F24.9°C 75.0°F23.9°C 94% 1.0 mph N1.6 kmh N 4.0 mph6.4 kmh 29.80 in1009.1 mb 0.00 in0.0 mm 0.00 in0.0 mm 0.00 in0.0 mm
03:00 AM 76.9°F24.9°C 75.0°F23.9°C 94% 2.0 mph N3.2 kmh N 5.0 mph8.0 kmh 29.80 in1009.1 mb 0.00 in0.0 mm 0.00 in0.0 mm 0.00 in0.0 mm
03:05 AM 76.9°F24.9°C 75.0°F23.9°C 94% 2.0 mph NNW3.2 kmh NNW 5.0 mph8.0 kmh 29.80 in1009.1 mb 0.00 in0.0 mm 0.00 in0.0 mm 0.00 in0.0 mm
03:10 AM 76.8°F24.9°C 74.9°F23.8°C 94% 2.0 mph NNW3.2 kmh NNW 6.0 mph9.7 kmh 29.80 in1009.1 mb 0.00 in0.0 mm 0.00 in0.0 mm 0.00 in0.0 mm
03:15 AM 76.8°F24.9°C 74.9°F23.8°C 94% 2.0 mph N3.2 kmh N 6.0 mph9.7 kmh 29.80 in1009.1 mb 0.00 in0.0 mm 0.00 in0.0 mm 0.00 in0.0 mm
03:20 AM 76.7°F24.8°C 74.8°F23.8°C 94% 2.0 mph N3.2 kmh N 5.0 mph8.0 kmh 29.80 in1009.1 mb 0.00 in0.0 mm 0.00 in0.0 mm 0.00 in0.0 mm
03:25 AM 76.7°F24.8°C 74.8°F23.8°C 94% 2.0 mph NNW3.2 kmh NNW 5.0 mph8.0 kmh 29.80 in1009.1 mb 0.00 in0.0 mm 0.00 in0.0 mm 0.00 in0.0 mm
03:30 AM 76.7°F24.8°C 74.8°F23.8°C 94% 2.0 mph N3.2 kmh N 5.0 mph8.0 kmh 29.80 in1009.1 mb 0.00 in0.0 mm 0.00 in0.0 mm 0.00 in0.0 mm
03:35 AM 76.8°F24.9°C 74.9°F23.8°C 94% 2.0 mph N3.2 kmh N 5.0 mph8.0 kmh 29.80 in1009.1 mb 0.00 in0.0 mm 0.00 in0.0 mm 0.00 in0.0 mm
03:40 AM 76.7°F24.8°C 74.8°F23.8°C 94% 2.0 mph N3.2 kmh N 4.0 mph6.4 kmh 29.80 in1009.1 mb 0.00 in0.0 mm 0.00 in0.0 mm 0.00 in0.0 mm
03:45 AM 76.7°F24.8°C 74.8°F23.8°C 94% 2.0 mph NNW3.2 kmh NNW 4.0 mph6.4 kmh 29.80 in1009.1 mb 0.00 in0.0 mm 0.00 in0.0 mm 0.00 in0.0 mm
03:50 AM 76.7°F24.8°C 74.8°F23.8°C 94% 2.0 mph N3.2 kmh N 5.0 mph8.0 kmh 29.80 in1009.1 mb 0.00 in0.0 mm 0.00 in0.0 mm 0.00 in0.0 mm
03:55 AM 76.7°F24.8°C 74.8°F23.8°C 94% 2.0 mph N3.2 kmh N 5.0 mph8.0 kmh 29.80 in1009.1 mb 0.00 in0.0 mm 0.00 in0.0 mm 0.00 in0.0 mm
04:00 AM 76.7°F24.8°C 74.8°F23.8°C 94% 2.0 mph N3.2 kmh N 5.0 mph8.0 kmh 29.80 in1009.1 mb 0.00 in0.0 mm 0.00 in0.0 mm 0.00 in0.0 mm
04:05 AM 76.6°F24.8°C 74.7°F23.7°C 94% 2.0 mph NNW3.2 kmh NNW 5.0 mph8.0 kmh 29.80 in1009.1 mb 0.00 in0.0 mm 0.00 in0.0 mm 0.00 in0.0 mm
04:10 AM 76.6°F24.8°C 74.7°F23.7°C 94% 2.0 mph N3.2 kmh N 5.0 mph8.0 kmh 29.80 in1009.1 mb 0.00 in0.0 mm 0.00 in0.0 mm 0.00 in0.0 mm
04:15 AM 76.5°F24.7°C 74.6°F23.7°C 94% 2.0 mph N3.2 kmh N 4.0 mph6.4 kmh 29.80 in1009.1 mb 0.00 in0.0 mm 0.00 in0.0 mm 0.00 in0.0 mm
04:20 AM 76.5°F24.7°C 75.0°F23.9°C 95% 2.0 mph N3.2 kmh N 4.0 mph6.4 kmh 29.80 in1009.1 mb 0.00 in0.0 mm 0.00 in0.0 mm 0.00 in0.0 mm
04:25 AM 76.5°F24.7°C 75.0°F23.9°C 95% 2.0 mph N3.2 kmh N 4.0 mph6.4 kmh 29.80 in1009.1 mb 0.00 in0.0 mm 0.00 in0.0 mm 0.00 in0.0 mm
04:30 AM 76.5°F24.7°C 75.0°F23.9°C 95% 2.0 mph N3.2 kmh N 4.0 mph6.4 kmh 29.80 in1009.1 mb 0.00 in0.0 mm 0.00 in0.0 mm 0.00 in0.0 mm
04:35 AM 76.5°F24.7°C 75.0°F23.9°C 95% 2.0 mph N3.2 kmh N 6.0 mph9.7 kmh 29.80 in1009.1 mb 0.00 in0.0 mm 0.00 in0.0 mm 0.00 in0.0 mm
04:40 AM 76.5°F24.7°C 75.0°F23.9°C 95% 2.0 mph N3.2 kmh N 6.0 mph9.7 kmh 29.80 in1009.1 mb 0.00 in0.0 mm 0.00 in0.0 mm 0.00 in0.0 mm
04:45 AM 76.5°F24.7°C 75.0°F23.9°C 95% 3.0 mph NNW4.8 kmh NNW 6.0 mph9.7 kmh 29.80 in1009.1 mb 0.00 in0.0 mm 0.00 in0.0 mm 0.00 in0.0 mm
04:50 AM 76.5°F24.7°C 75.0°F23.9°C 95% 3.0 mph NNW4.8 kmh NNW 6.0 mph9.7 kmh 29.80 in1009.1 mb 0.00 in0.0 mm 0.00 in0.0 mm 0.00 in0.0 mm
04:55 AM 76.6°F24.8°C 75.1°F23.9°C 95% 3.0 mph N4.8 kmh N 6.0 mph9.7 kmh 29.80 in1009.1 mb 0.00 in0.0 mm 0.00 in0.0 mm 0.00 in0.0 mm
05:00 AM 76.6°F24.8°C 75.1°F23.9°C 95% 3.0 mph N4.8 kmh N 7.0 mph11.3 kmh 29.80 in1009.1 mb 0.00 in0.0 mm 0.00 in0.0 mm 0.00 in0.0 mm
05:05 AM 76.6°F24.8°C 75.1°F23.9°C 95% 2.0 mph N3.2 kmh N 7.0 mph11.3 kmh 29.80 in1009.1 mb 0.00 in0.0 mm 0.00 in0.0 mm 0.00 in0.0 mm
05:10 AM 76.6°F24.8°C 75.1°F23.9°C 95% 2.0 mph NNW3.2 kmh NNW 5.0 mph8.0 kmh 29.80 in1009.1 mb 0.00 in0.0 mm 0.00 in0.0 mm 0.00 in0.0 mm
05:15 AM 76.6°F24.8°C 75.1°F23.9°C 95% 2.0 mph N3.2 kmh N 7.0 mph11.3 kmh 29.80 in1009.1 mb 0.00 in0.0 mm 0.00 in0.0 mm 0.00 in0.0 mm
05:20 AM 76.7°F24.8°C 75.2°F24.0°C 95% 3.0 mph N4.8 kmh N 7.0 mph11.3 kmh 29.80 in1009.1 mb 0.00 in0.0 mm 0.00 in0.0 mm 0.00 in0.0 mm
05:25 AM 76.7°F24.8°C 75.2°F24.0°C 95% 2.0 mph N3.2 kmh N 6.0 mph9.7 kmh 29.80 in1009.1 mb 0.00 in0.0 mm 0.00 in0.0 mm 0.00 in0.0 mm
05:30 AM 76.7°F24.8°C 75.2°F24.0°C 95% 2.0 mph N3.2 kmh N 4.0 mph6.4 kmh 29.80 in1009.1 mb 0.00 in0.0 mm 0.00 in0.0 mm 0.00 in0.0 mm
05:35 AM 76.7°F24.8°C 75.2°F24.0°C 95% 2.0 mph N3.2 kmh N 6.0 mph9.7 kmh 29.80 in1009.1 mb 0.00 in0.0 mm 0.00 in0.0 mm 0.00 in0.0 mm
05:40 AM 76.7°F24.8°C 75.2°F24.0°C 95% 3.0 mph NNW4.8 kmh NNW 8.0 mph12.9 kmh 29.80 in1009.1 mb 0.00 in0.0 mm 0.00 in0.0 mm 0.00 in0.0 mm
05:45 AM 76.8°F24.9°C 74.9°F23.8°C 94% 3.0 mph NNW4.8 kmh NNW 8.0 mph12.9 kmh 29.80 in1009.1 mb 0.00 in0.0 mm 0.00 in0.0 mm 0.00 in0.0 mm
05:50 AM 76.8°F24.9°C 74.9°F23.8°C 94% 3.0 mph NNW4.8 kmh NNW 8.0 mph12.9 kmh 29.80 in1009.1 mb 0.00 in0.0 mm 0.00 in0.0 mm 0.00 in0.0 mm
05:55 AM 76.8°F24.9°C 74.9°F23.8°C 94% 3.0 mph NNW4.8 kmh NNW 6.0 mph9.7 kmh 29.81 in1009.5 mb 0.00 in0.0 mm 0.00 in0.0 mm 0.00 in0.0 mm
06:00 AM 76.8°F24.9°C 74.9°F23.8°C 94% 2.0 mph NNW3.2 kmh NNW 5.0 mph8.0 kmh 29.80 in1009.1 mb 0.00 in0.0 mm 0.00 in0.0 mm 0.00 in0.0 mm
06:05 AM 76.8°F24.9°C 74.9°F23.8°C 94% 2.0 mph N3.2 kmh N 5.0 mph8.0 kmh 29.81 in1009.5 mb 0.00 in0.0 mm 0.00 in0.0 mm 0.00 in0.0 mm
06:10 AM 76.8°F24.9°C 74.9°F23.8°C 94% 2.0 mph N3.2 kmh N 5.0 mph8.0 kmh 29.80 in1009.1 mb 0.00 in0.0 mm 0.00 in0.0 mm 0.00 in0.0 mm
06:15 AM 76.9°F24.9°C 75.0°F23.9°C 94% 2.0 mph N3.2 kmh N 6.0 mph9.7 kmh 29.81 in1009.5 mb 0.00 in0.0 mm 0.00 in0.0 mm 0.00 in0.0 mm
06:20 AM 76.9°F24.9°C 75.0°F23.9°C 94% 2.0 mph NNW3.2 kmh NNW 6.0 mph9.7 kmh 29.81 in1009.5 mb 0.00 in0.0 mm 0.00 in0.0 mm 0.00 in0.0 mm
06:25 AM 76.9°F24.9°C 75.4°F24.1°C 95% 2.0 mph NNW3.2 kmh NNW 9.0 mph14.5 kmh 29.81 in1009.5 mb 0.00 in0.0 mm 0.00 in0.0 mm 0.00 in0.0 mm
06:30 AM 76.9°F24.9°C 75.4°F24.1°C 95% 3.0 mph NNW4.8 kmh NNW 9.0 mph14.5 kmh 29.81 in1009.5 mb 0.00 in0.0 mm 0.00 in0.0 mm 0.00 in0.0 mm
06:35 AM 77.0°F25.0°C 75.5°F24.2°C 95% 3.0 mph NNW4.8 kmh NNW 10.0 mph16.1 kmh 29.81 in1009.5 mb 0.00 in0.0 mm 0.00 in0.0 mm 0.00 in0.0 mm
06:40 AM 77.2°F25.1°C 75.7°F24.3°C 95% 4.0 mph NNW6.4 kmh NNW 10.0 mph16.1 kmh 29.81 in1009.5 mb 0.00 in0.0 mm 0.00 in0.0 mm 0.00 in0.0 mm
06:45 AM 77.3°F25.2°C 75.8°F24.3°C 95% 4.0 mph NNW6.4 kmh NNW 10.0 mph16.1 kmh 29.81 in1009.5 mb 0.00 in0.0 mm 0.00 in0.0 mm 0.00 in0.0 mm
06:50 AM 77.3°F25.2°C 75.8°F24.3°C 95% 3.0 mph NNW4.8 kmh NNW 9.0 mph14.5 kmh 29.82 in1009.8 mb 0.00 in0.0 mm 0.00 in0.0 mm 0.00 in0.0 mm
06:55 AM 77.4°F25.2°C 75.5°F24.2°C 94% 4.0 mph N6.4 kmh N 9.0 mph14.5 kmh 29.82 in1009.8 mb 0.00 in0.0 mm 0.00 in0.0 mm 0.00 in0.0 mm
07:00 AM 77.6°F25.3°C 75.7°F24.3°C 94% 4.0 mph N6.4 kmh N 10.0 mph16.1 kmh 29.82 in1009.8 mb 0.00 in0.0 mm 0.00 in0.0 mm 0.00 in0.0 mm
07:05 AM 77.7°F25.4°C 75.8°F24.3°C 94% 4.0 mph NNW6.4 kmh NNW 10.0 mph16.1 kmh 29.82 in1009.8 mb 0.00 in0.0 mm 0.00 in0.0 mm 0.00 in0.0 mm
07:10 AM 77.9°F25.5°C 76.0°F24.4°C 94% 4.0 mph NNW6.4 kmh NNW 10.0 mph16.1 kmh 29.82 in1009.8 mb 0.00 in0.0 mm 0.00 in0.0 mm 0.00 in0.0 mm
07:15 AM 78.1°F25.6°C 76.2°F24.6°C 94% 5.0 mph N8.0 kmh N 9.0 mph14.5 kmh 29.82 in1009.8 mb 0.00 in0.0 mm 0.00 in0.0 mm 0.00 in0.0 mm
07:20 AM 78.4°F25.8°C 76.2°F24.6°C 93% 4.0 mph N6.4 kmh N 9.0 mph14.5 kmh 29.82 in1009.8 mb 0.00 in0.0 mm 0.00 in0.0 mm 0.00 in0.0 mm
07:25 AM 78.6°F25.9°C 76.4°F24.7°C 93% 4.0 mph N6.4 kmh N 10.0 mph16.1 kmh 29.82 in1009.8 mb 0.00 in0.0 mm 0.00 in0.0 mm 0.00 in0.0 mm
07:30 AM 78.8°F26.0°C 76.3°F24.6°C 92% 5.0 mph N8.0 kmh N 11.0 mph17.7 kmh 29.82 in1009.8 mb 0.00 in0.0 mm 0.00 in0.0 mm 0.00 in0.0 mm
07:35 AM 79.1°F26.2°C 76.9°F24.9°C 93% 5.0 mph N8.0 kmh N 11.0 mph17.7 kmh 29.83 in1010.2 mb 0.00 in0.0 mm 0.00 in0.0 mm 0.00 in0.0 mm
07:40 AM 79.3°F26.3°C 76.8°F24.9°C 92% 5.0 mph N8.0 kmh N 10.0 mph16.1 kmh 29.83 in1010.2 mb 0.00 in0.0 mm 0.00 in0.0 mm 0.00 in0.0 mm
07:45 AM 79.6°F26.4°C 77.1°F25.1°C 92% 4.0 mph NNW6.4 kmh NNW 10.0 mph16.1 kmh 29.82 in1009.8 mb 0.00 in0.0 mm 0.00 in0.0 mm 0.00 in0.0 mm
07:50 AM 79.7°F26.5°C 76.8°F24.9°C 91% 4.0 mph NNW6.4 kmh NNW 13.0 mph20.9 kmh 29.82 in1009.8 mb 0.00 in0.0 mm 0.00 in0.0 mm 0.00 in0.0 mm
07:55 AM 80.0°F26.7°C 77.1°F25.1°C 91% 5.0 mph N8.0 kmh N 13.0 mph20.9 kmh 29.83 in1010.2 mb 0.00 in0.0 mm 0.00 in0.0 mm 0.00 in0.0 mm
08:00 AM 80.5°F26.9°C 77.0°F25.0°C 89% 5.0 mph N8.0 kmh N 13.0 mph20.9 kmh 29.82 in1009.8 mb 0.00 in0.0 mm 0.00 in0.0 mm 0.00 in0.0 mm
08:05 AM 80.7°F27.1°C 77.2°F25.1°C 89% 5.0 mph N8.0 kmh N 14.0 mph22.5 kmh 29.82 in1009.8 mb 0.00 in0.0 mm 0.00 in0.0 mm 0.00 in0.0 mm
08:10 AM 81.2°F27.3°C 77.3°F25.2°C 88% 6.0 mph N9.7 kmh N 15.0 mph24.1 kmh 29.82 in1009.8 mb 0.00 in0.0 mm 0.00 in0.0 mm 0.00 in0.0 mm
08:15 AM 81.8°F27.7°C 77.9°F25.5°C 88% 5.0 mph N8.0 kmh N 15.0 mph24.1 kmh 29.82 in1009.8 mb 0.00 in0.0 mm 0.00 in0.0 mm 0.00 in0.0 mm
08:20 AM 82.1°F27.8°C 77.8°F25.4°C 87% 5.0 mph NNW8.0 kmh NNW 13.0 mph20.9 kmh 29.82 in1009.8 mb 0.00 in0.0 mm 0.00 in0.0 mm 0.00 in0.0 mm
08:25 AM 82.5°F28.1°C 77.9°F25.5°C 86% 6.0 mph NNW9.7 kmh NNW 13.0 mph20.9 kmh 29.82 in1009.8 mb 0.00 in0.0 mm 0.00 in0.0 mm 0.00 in0.0 mm
08:30 AM 82.8°F28.2°C 77.8°F25.4°C 85% 6.0 mph N9.7 kmh N 13.0 mph20.9 kmh 29.82 in1009.8 mb 0.00 in0.0 mm 0.00 in0.0 mm 0.00 in0.0 mm
08:35 AM 83.3°F28.5°C 78.3°F25.7°C 85% 4.0 mph N6.4 kmh N 13.0 mph20.9 kmh 29.82 in1009.8 mb 0.00 in0.0 mm 0.00 in0.0 mm 0.00 in0.0 mm
08:40 AM 83.6°F28.7°C 78.6°F25.9°C 85% 4.0 mph N6.4 kmh N 11.0 mph17.7 kmh 29.82 in1009.8 mb 0.00 in0.0 mm 0.00 in0.0 mm 0.00 in0.0 mm
08:45 AM 83.9°F28.8°C 78.5°F25.8°C 84% 5.0 mph N8.0 kmh N 11.0 mph17.7 kmh 29.83 in1010.2 mb 0.00 in0.0 mm 0.00 in0.0 mm 0.00 in0.0 mm
08:50 AM 84.0°F28.9°C 78.6°F25.9°C 84% 5.0 mph N8.0 kmh N 11.0 mph17.7 kmh 29.83 in1010.2 mb 0.00 in0.0 mm 0.00 in0.0 mm 0.00 in0.0 mm
08:55 AM 84.1°F28.9°C 78.4°F25.8°C 83% 5.0 mph N8.0 kmh N 13.0 mph20.9 kmh 29.83 in1010.2 mb 0.00 in0.0 mm 0.00 in0.0 mm 0.00 in0.0 mm
09:00 AM 84.4°F29.1°C 79.0°F26.1°C 84% 5.0 mph N8.0 kmh N 13.0 mph20.9 kmh 29.83 in1010.2 mb 0.00 in0.0 mm 0.00 in0.0 mm 0.00 in0.0 mm
09:05 AM 84.7°F29.3°C 78.6°F25.9°C 82% 5.0 mph N8.0 kmh N 12.0 mph19.3 kmh 29.83 in1010.2 mb 0.00 in0.0 mm 0.00 in0.0 mm 0.00 in0.0 mm
09:10 AM 84.7°F29.3°C 78.6°F25.9°C 82% 5.0 mph N8.0 kmh N 11.0 mph17.7 kmh 29.83 in1010.2 mb 0.00 in0.0 mm 0.00 in0.0 mm 0.00 in0.0 mm
09:15 AM 84.7°F29.3°C 78.6°F25.9°C 82% 6.0 mph N9.7 kmh N 12.0 mph19.3 kmh 29.83 in1010.2 mb 0.00 in0.0 mm 0.00 in0.0 mm 0.00 in0.0 mm
09:20 AM 84.8°F29.3°C 78.7°F25.9°C 82% 5.0 mph N8.0 kmh N 12.0 mph19.3 kmh 29.84 in1010.5 mb 0.00 in0.0 mm 0.00 in0.0 mm 0.00 in0.0 mm
09:25 AM 85.1°F29.5°C 78.6°F25.9°C 81% 4.0 mph N6.4 kmh N 12.0 mph19.3 kmh 29.83 in1010.2 mb 0.00 in0.0 mm 0.00 in0.0 mm 0.00 in0.0 mm
09:30 AM 85.1°F29.5°C 78.6°F25.9°C 81% 4.0 mph N6.4 kmh N 12.0 mph19.3 kmh 29.83 in1010.2 mb 0.00 in0.0 mm 0.00 in0.0 mm 0.00 in0.0 mm
09:35 AM 85.0°F29.4°C 78.5°F25.8°C 81% 4.0 mph N6.4 kmh N 10.0 mph16.1 kmh 29.83 in1010.2 mb 0.00 in0.0 mm 0.00 in0.0 mm 0.00 in0.0 mm
09:40 AM 85.2°F29.6°C 79.1°F26.2°C 82% 4.0 mph N6.4 kmh N 10.0 mph16.1 kmh 29.83 in1010.2 mb 0.00 in0.0 mm 0.00 in0.0 mm 0.00 in0.0 mm
09:45 AM 85.6°F29.8°C 79.1°F26.2°C 81% 4.0 mph N6.4 kmh N 11.0 mph17.7 kmh 29.83 in1010.2 mb 0.00 in0.0 mm 0.00 in0.0 mm 0.00 in0.0 mm
09:50 AM 85.7°F29.8°C 78.4°F25.8°C 79% 4.0 mph N6.4 kmh N 11.0 mph17.7 kmh 29.83 in1010.2 mb 0.00 in0.0 mm 0.00 in0.0 mm 0.00 in0.0 mm
09:55 AM 85.8°F29.9°C 78.1°F25.6°C 78% 5.0 mph N8.0 kmh N 10.0 mph16.1 kmh 29.83 in1010.2 mb 0.00 in0.0 mm 0.00 in0.0 mm 0.00 in0.0 mm
10:00 AM 86.3°F30.2°C 79.0°F26.1°C 79% 5.0 mph N8.0 kmh N 11.0 mph17.7 kmh 29.83 in1010.2 mb 0.00 in0.0 mm 0.00 in0.0 mm 0.00 in0.0 mm
10:05 AM 86.4°F30.2°C 78.3°F25.7°C 77% 5.0 mph N8.0 kmh N 17.0 mph27.4 kmh 29.83 in1010.2 mb 0.00 in0.0 mm 0.00 in0.0 mm 0.00 in0.0 mm
10:10 AM 86.0°F30.0°C 78.3°F25.7°C 78% 6.0 mph N9.7 kmh N 17.0 mph27.4 kmh 29.83 in1010.2 mb 0.00 in0.0 mm 0.00 in0.0 mm 0.00 in0.0 mm
10:15 AM 86.7°F30.4°C 78.6°F25.9°C 77% 5.0 mph N8.0 kmh N 15.0 mph24.1 kmh 29.83 in1010.2 mb 0.00 in0.0 mm 0.00 in0.0 mm 0.00 in0.0 mm
10:20 AM 87.6°F30.9°C 79.1°F26.2°C 76% 5.0 mph NNE8.0 kmh NNE 13.0 mph20.9 kmh 29.83 in1010.2 mb 0.00 in0.0 mm 0.00 in0.0 mm 0.00 in0.0 mm
10:25 AM 88.0°F31.1°C 78.3°F25.7°C 73% 6.0 mph NNE9.7 kmh NNE 14.0 mph22.5 kmh 29.83 in1010.2 mb 0.00 in0.0 mm 0.00 in0.0 mm 0.00 in0.0 mm
10:30 AM 88.0°F31.1°C 79.1°F26.2°C 75% 5.0 mph NNE8.0 kmh NNE 14.0 mph22.5 kmh 29.83 in1010.2 mb 0.00 in0.0 mm 0.00 in0.0 mm 0.00 in0.0 mm
10:35 AM 88.7°F31.5°C 78.9°F26.1°C 73% 5.0 mph NNE8.0 kmh NNE 11.0 mph17.7 kmh 29.83 in1010.2 mb 0.00 in0.0 mm 0.00 in0.0 mm 0.00 in0.0 mm
10:40 AM 89.2°F31.8°C 79.4°F26.3°C 73% 6.0 mph N9.7 kmh N 13.0 mph20.9 kmh 29.83 in1010.2 mb 0.00 in0.0 mm 0.00 in0.0 mm 0.00 in0.0 mm
10:45 AM 89.4°F31.9°C 78.3°F25.7°C 70% 5.0 mph N8.0 kmh N 13.0 mph20.9 kmh 29.83 in1010.2 mb 0.00 in0.0 mm 0.00 in0.0 mm 0.00 in0.0 mm
10:50 AM 89.2°F31.8°C 78.6°F25.9°C 71% 6.0 mph N9.7 kmh N 14.0 mph22.5 kmh 29.83 in1010.2 mb 0.00 in0.0 mm 0.00 in0.0 mm 0.00 in0.0 mm
10:55 AM 89.8°F32.1°C 79.6°F26.4°C 72% 6.0 mph N9.7 kmh N 14.0 mph22.5 kmh 29.83 in1010.2 mb 0.00 in0.0 mm 0.00 in0.0 mm 0.00 in0.0 mm
11:00 AM 90.2°F32.3°C 78.6°F25.9°C 69% 6.0 mph N9.7 kmh N 12.0 mph19.3 kmh 29.82 in1009.8 mb 0.00 in0.0 mm 0.00 in0.0 mm 0.00 in0.0 mm
11:05 AM 90.6°F32.6°C 79.5°F26.4°C 70% 6.0 mph N9.7 kmh N 12.0 mph19.3 kmh 29.82 in1009.8 mb 0.00 in0.0 mm 0.00 in0.0 mm 0.00 in0.0 mm
11:10 AM 90.4°F32.4°C 78.8°F26.0°C 69% 5.0 mph N8.0 kmh N 11.0 mph17.7 kmh 29.81 in1009.5 mb 0.00 in0.0 mm 0.00 in0.0 mm 0.00 in0.0 mm
11:15 AM 90.7°F32.6°C 80.0°F26.7°C 71% 5.0 mph N8.0 kmh N 11.0 mph17.7 kmh 29.81 in1009.5 mb 0.00 in0.0 mm 0.00 in0.0 mm 0.00 in0.0 mm
11:20 AM 90.8°F32.7°C 80.1°F26.7°C 71% 4.0 mph N6.4 kmh N 9.0 mph14.5 kmh 29.81 in1009.5 mb 0.00 in0.0 mm 0.00 in0.0 mm 0.00 in0.0 mm
11:25 AM 91.5°F33.1°C 79.4°F26.3°C 68% 5.0 mph N8.0 kmh N 10.0 mph16.1 kmh 29.81 in1009.5 mb 0.00 in0.0 mm 0.00 in0.0 mm 0.00 in0.0 mm
11:30 AM 91.8°F33.2°C 79.3°F26.3°C 67% 6.0 mph N9.7 kmh N 12.0 mph19.3 kmh 29.80 in1009.1 mb 0.00 in0.0 mm 0.00 in0.0 mm 0.00 in0.0 mm
11:35 AM 91.2°F32.9°C 78.2°F25.7°C 66% 6.0 mph N9.7 kmh N 14.0 mph22.5 kmh 29.80 in1009.1 mb 0.00 in0.0 mm 0.00 in0.0 mm 0.00 in0.0 mm
11:40 AM 91.3°F32.9°C 79.3°F26.3°C 68% 5.0 mph N8.0 kmh N 14.0 mph22.5 kmh 29.80 in1009.1 mb 0.00 in0.0 mm 0.00 in0.0 mm 0.00 in0.0 mm
11:45 AM 91.6°F33.1°C 78.6°F25.9°C 66% 5.0 mph N8.0 kmh N 14.0 mph22.5 kmh 29.79 in1008.8 mb 0.00 in0.0 mm 0.00 in0.0 mm 0.00 in0.0 mm
11:50 AM 91.2°F32.9°C 78.2°F25.7°C 66% 6.0 mph N9.7 kmh N 14.0 mph22.5 kmh 29.79 in1008.8 mb 0.00 in0.0 mm 0.00 in0.0 mm 0.00 in0.0 mm
11:55 AM 90.4°F32.4°C 77.9°F25.5°C 67% 7.0 mph N11.3 kmh N 14.0 mph22.5 kmh 29.79 in1008.8 mb 0.00 in0.0 mm 0.00 in0.0 mm 0.00 in0.0 mm
12:00 PM 90.4°F32.4°C 79.7°F26.5°C 71% 7.0 mph N11.3 kmh N 14.0 mph22.5 kmh 29.79 in1008.8 mb 0.00 in0.0 mm 0.00 in0.0 mm 0.00 in0.0 mm
12:05 PM 91.5°F33.1°C 79.9°F26.6°C 69% 6.0 mph N9.7 kmh N 12.0 mph19.3 kmh 29.79 in1008.8 mb 0.00 in0.0 mm 0.00 in0.0 mm 0.00 in0.0 mm
12:10 PM 92.3°F33.5°C 78.8°F26.0°C 65% 6.0 mph N9.7 kmh N 12.0 mph19.3 kmh 29.79 in1008.8 mb 0.00 in0.0 mm 0.00 in0.0 mm 0.00 in0.0 mm
12:15 PM 91.8°F33.2°C 78.8°F26.0°C 66% 6.0 mph N9.7 kmh N 12.0 mph19.3 kmh 29.79 in1008.8 mb 0.00 in0.0 mm 0.00 in0.0 mm 0.00 in0.0 mm
12:20 PM 91.1°F32.8°C 78.2°F25.7°C 66% 5.0 mph N8.0 kmh N 12.0 mph19.3 kmh 29.79 in1008.8 mb 0.00 in0.0 mm 0.00 in0.0 mm 0.00 in0.0 mm
12:25 PM 90.5°F32.5°C 78.9°F26.1°C 69% 6.0 mph N9.7 kmh N 12.0 mph19.3 kmh 29.79 in1008.8 mb 0.00 in0.0 mm 0.00 in0.0 mm 0.00 in0.0 mm
12:30 PM 90.1°F32.3°C 79.4°F26.3°C 71% 7.0 mph N11.3 kmh N 15.0 mph24.1 kmh 29.79 in1008.8 mb 0.00 in0.0 mm 0.00 in0.0 mm 0.00 in0.0 mm
12:35 PM 89.7°F32.1°C 79.0°F26.1°C 71% 6.0 mph NNW9.7 kmh NNW 15.0 mph24.1 kmh 29.79 in1008.8 mb 0.00 in0.0 mm 0.00 in0.0 mm 0.00 in0.0 mm
12:40 PM 89.7°F32.1°C 79.0°F26.1°C 71% 6.0 mph N9.7 kmh N 12.0 mph19.3 kmh 29.80 in1009.1 mb 0.00 in0.0 mm 0.00 in0.0 mm 0.00 in0.0 mm
12:45 PM 89.9°F32.2°C 79.7°F26.5°C 72% 6.0 mph N9.7 kmh N 12.0 mph19.3 kmh 29.79 in1008.8 mb 0.00 in0.0 mm 0.00 in0.0 mm 0.00 in0.0 mm
12:50 PM 89.8°F32.1°C 78.7°F25.9°C 70% 6.0 mph N9.7 kmh N 16.0 mph25.7 kmh 29.81 in1009.5 mb 0.00 in0.0 mm 0.00 in0.0 mm 0.00 in0.0 mm
12:55 PM 85.8°F29.9°C 75.3°F24.1°C 71% 10.0 mph NE16.1 kmh NE 24.0 mph38.6 kmh 29.82 in1009.8 mb 0.05 in1.3 mm 0.60 in15.2 mm 0.05 in1.3 mm
01:00 PM 82.0°F27.8°C 74.5°F23.6°C 78% 9.0 mph ENE14.5 kmh ENE 24.0 mph38.6 kmh 29.81 in1009.5 mb 0.08 in2.0 mm 0.03 in0.8 mm 0.08 in2.0 mm
01:05 PM 80.3°F26.8°C 75.0°F23.9°C 84% 5.0 mph NE8.0 kmh NE 16.0 mph25.7 kmh 29.80 in1009.1 mb 0.08 in2.0 mm 0.00 in0.0 mm 0.08 in2.0 mm
01:10 PM 79.4°F26.3°C 74.8°F23.8°C 86% 3.0 mph NE4.8 kmh NE 9.0 mph14.5 kmh 29.79 in1008.8 mb 0.08 in2.0 mm 0.00 in0.0 mm 0.08 in2.0 mm
01:15 PM 79.1°F26.2°C 75.2°F24.0°C 88% 3.0 mph N4.8 kmh N 8.0 mph12.9 kmh 29.79 in1008.8 mb 0.08 in2.0 mm 0.00 in0.0 mm 0.08 in2.0 mm
01:20 PM 79.2°F26.2°C 76.0°F24.4°C 90% 4.0 mph NNW6.4 kmh NNW 9.0 mph14.5 kmh 29.79 in1008.8 mb 0.08 in2.0 mm 0.00 in0.0 mm 0.08 in2.0 mm
01:25 PM 79.4°F26.3°C 76.2°F24.6°C 90% 4.0 mph NNW6.4 kmh NNW 9.0 mph14.5 kmh 29.79 in1008.8 mb 0.08 in2.0 mm 0.00 in0.0 mm 0.08 in2.0 mm
01:30 PM 79.6°F26.4°C 76.7°F24.8°C 91% 3.0 mph NNW4.8 kmh NNW 8.0 mph12.9 kmh 29.78 in1008.5 mb 0.08 in2.0 mm 0.00 in0.0 mm 0.08 in2.0 mm
01:35 PM 80.0°F26.7°C 77.1°F25.1°C 91% 3.0 mph NNW4.8 kmh NNW 10.0 mph16.1 kmh 29.78 in1008.5 mb 0.08 in2.0 mm 0.00 in0.0 mm 0.08 in2.0 mm
01:40 PM 80.4°F26.9°C 76.9°F24.9°C 89% 4.0 mph NNW6.4 kmh NNW 10.0 mph16.1 kmh 29.78 in1008.5 mb 0.08 in2.0 mm 0.00 in0.0 mm 0.08 in2.0 mm
01:45 PM 80.9°F27.2°C 77.4°F25.2°C 89% 4.0 mph N6.4 kmh N 10.0 mph16.1 kmh 29.78 in1008.5 mb 0.08 in2.0 mm 0.00 in0.0 mm 0.08 in2.0 mm
01:50 PM 81.3°F27.4°C 77.4°F25.2°C 88% 4.0 mph NNW6.4 kmh NNW 8.0 mph12.9 kmh 29.78 in1008.5 mb 0.08 in2.0 mm 0.00 in0.0 mm 0.08 in2.0 mm
01:55 PM 81.7°F27.6°C 77.8°F25.4°C 88% 4.0 mph N6.4 kmh N 8.0 mph12.9 kmh 29.77 in1008.1 mb 0.01 in0.3 mm 0.00 in0.0 mm 0.08 in2.0 mm
02:00 PM 82.0°F27.8°C 77.4°F25.2°C 86% 4.0 mph N6.4 kmh N 10.0 mph16.1 kmh 29.77 in1008.1 mb 0.00 in0.0 mm 0.00 in0.0 mm 0.08 in2.0 mm
02:05 PM 82.4°F28.0°C 77.4°F25.2°C 85% 4.0 mph N6.4 kmh N 11.0 mph17.7 kmh 29.77 in1008.1 mb 0.00 in0.0 mm 0.00 in0.0 mm 0.08 in2.0 mm
02:10 PM 82.8°F28.2°C 77.8°F25.4°C 85% 4.0 mph N6.4 kmh N 11.0 mph17.7 kmh 29.76 in1007.8 mb 0.00 in0.0 mm 0.00 in0.0 mm 0.08 in2.0 mm
02:15 PM 83.3°F28.5°C 78.3°F25.7°C 85% 4.0 mph N6.4 kmh N 10.0 mph16.1 kmh 29.76 in1007.8 mb 0.00 in0.0 mm 0.00 in0.0 mm 0.08 in2.0 mm
02:20 PM 83.8°F28.8°C 78.1°F25.6°C 83% 4.0 mph N6.4 kmh N 10.0 mph16.1 kmh 29.76 in1007.8 mb 0.00 in0.0 mm 0.00 in0.0 mm 0.08 in2.0 mm
02:25 PM 84.6°F29.2°C 79.2°F26.2°C 84% 4.0 mph NNW6.4 kmh NNW 10.0 mph16.1 kmh 29.75 in1007.5 mb 0.00 in0.0 mm 0.00 in0.0 mm 0.08 in2.0 mm
02:30 PM 85.5°F29.7°C 79.4°F26.3°C 82% 5.0 mph NNW8.0 kmh NNW 13.0 mph20.9 kmh 29.75 in1007.5 mb 0.00 in0.0 mm 0.00 in0.0 mm 0.08 in2.0 mm
02:35 PM 86.6°F30.3°C 80.1°F26.7°C 81% 6.0 mph N9.7 kmh N 13.0 mph20.9 kmh 29.75 in1007.5 mb 0.00 in0.0 mm 0.00 in0.0 mm 0.08 in2.0 mm
02:40 PM 88.1°F31.2°C 81.1°F27.3°C 80% 4.0 mph N6.4 kmh N 11.0 mph17.7 kmh 29.75 in1007.5 mb 0.00 in0.0 mm 0.00 in0.0 mm 0.08 in2.0 mm
02:45 PM 89.0°F31.7°C 81.2°F27.3°C 78% 4.0 mph N6.4 kmh N 10.0 mph16.1 kmh 29.75 in1007.5 mb 0.00 in0.0 mm 0.00 in0.0 mm 0.08 in2.0 mm
02:50 PM 89.2°F31.8°C 80.2°F26.8°C 75% 5.0 mph N8.0 kmh N 11.0 mph17.7 kmh 29.75 in1007.5 mb 0.00 in0.0 mm 0.00 in0.0 mm 0.08 in2.0 mm
02:55 PM 89.4°F31.9°C 79.6°F26.4°C 73% 6.0 mph N9.7 kmh N 16.0 mph25.7 kmh 29.75 in1007.5 mb 0.00 in0.0 mm 0.00 in0.0 mm 0.08 in2.0 mm
03:00 PM 89.7°F32.1°C 79.9°F26.6°C 73% 7.0 mph N11.3 kmh N 16.0 mph25.7 kmh 29.75 in1007.5 mb 0.00 in0.0 mm 0.00 in0.0 mm 0.08 in2.0 mm
03:05 PM 88.0°F31.1°C 76.5°F24.7°C 69% 8.0 mph NNE12.9 kmh NNE 23.0 mph37.0 kmh 29.76 in1007.8 mb 0.00 in0.0 mm 0.00 in0.0 mm 0.08 in2.0 mm
03:10 PM 85.3°F29.6°C 75.7°F24.3°C 73% 8.0 mph NNE12.9 kmh NNE 23.0 mph37.0 kmh 29.76 in1007.8 mb 0.00 in0.0 mm 0.00 in0.0 mm 0.08 in2.0 mm
03:15 PM 82.7°F28.2°C 75.5°F24.2°C 79% 7.0 mph NE11.3 kmh NE 16.0 mph25.7 kmh 29.76 in1007.8 mb 0.02 in0.5 mm 0.24 in6.1 mm 0.10 in2.5 mm
03:20 PM 81.4°F27.4°C 76.1°F24.5°C 84% 6.0 mph NE9.7 kmh NE 16.0 mph25.7 kmh 29.76 in1007.8 mb 0.02 in0.5 mm 0.00 in0.0 mm 0.10 in2.5 mm
03:25 PM 81.0°F27.2°C 76.4°F24.7°C 86% 7.0 mph N11.3 kmh N 14.0 mph22.5 kmh 29.76 in1007.8 mb 0.02 in0.5 mm 0.00 in0.0 mm 0.10 in2.5 mm
03:30 PM 81.3°F27.4°C 76.7°F24.8°C 86% 6.0 mph N9.7 kmh N 14.0 mph22.5 kmh 29.76 in1007.8 mb 0.02 in0.5 mm 0.00 in0.0 mm 0.10 in2.5 mm
03:35 PM 80.9°F27.2°C 76.0°F24.4°C 85% 6.0 mph N9.7 kmh N 13.0 mph20.9 kmh 29.76 in1007.8 mb 0.02 in0.5 mm 0.00 in0.0 mm 0.10 in2.5 mm
03:40 PM 80.2°F26.8°C 75.3°F24.1°C 85% 6.0 mph NNW9.7 kmh NNW 13.0 mph20.9 kmh 29.76 in1007.8 mb 0.02 in0.5 mm 0.00 in0.0 mm 0.10 in2.5 mm
03:45 PM 79.7°F26.5°C 75.1°F23.9°C 86% 4.0 mph NNW6.4 kmh NNW 13.0 mph20.9 kmh 29.75 in1007.5 mb 0.02 in0.5 mm 0.00 in0.0 mm 0.10 in2.5 mm
03:50 PM 79.4°F26.3°C 75.2°F24.0°C 87% 4.0 mph NNW6.4 kmh NNW 9.0 mph14.5 kmh 29.76 in1007.8 mb 0.02 in0.5 mm 0.00 in0.0 mm 0.10 in2.5 mm
03:55 PM 79.1°F26.2°C 75.2°F24.0°C 88% 4.0 mph NW6.4 kmh NW 9.0 mph14.5 kmh 29.76 in1007.8 mb 0.02 in0.5 mm 0.00 in0.0 mm 0.10 in2.5 mm
04:00 PM 78.9°F26.1°C 75.0°F23.9°C 88% 4.0 mph NW6.4 kmh NW 8.0 mph12.9 kmh 29.76 in1007.8 mb 0.02 in0.5 mm 0.00 in0.0 mm 0.10 in2.5 mm
04:05 PM 79.2°F26.2°C 75.7°F24.3°C 89% 3.0 mph NW4.8 kmh NW 8.0 mph12.9 kmh 29.75 in1007.5 mb 0.02 in0.5 mm 0.00 in0.0 mm 0.10 in2.5 mm
04:10 PM 79.6°F26.4°C 75.7°F24.3°C 88% 3.0 mph NW4.8 kmh NW 8.0 mph12.9 kmh 29.75 in1007.5 mb 0.01 in0.3 mm 0.00 in0.0 mm 0.10 in2.5 mm
04:15 PM 79.7°F26.5°C 75.8°F24.3°C 88% 3.0 mph NNW4.8 kmh NNW 6.0 mph9.7 kmh 29.75 in1007.5 mb 0.00 in0.0 mm 0.00 in0.0 mm 0.10 in2.5 mm
04:20 PM 79.6°F26.4°C 75.7°F24.3°C 88% 3.0 mph NNW4.8 kmh NNW 8.0 mph12.9 kmh 29.75 in1007.5 mb 0.00 in0.0 mm 0.00 in0.0 mm 0.10 in2.5 mm
04:25 PM 79.6°F26.4°C 75.7°F24.3°C 88% 4.0 mph NW6.4 kmh NW 8.0 mph12.9 kmh 29.75 in1007.5 mb 0.00 in0.0 mm 0.00 in0.0 mm 0.10 in2.5 mm
04:30 PM 79.6°F26.4°C 76.1°F24.5°C 89% 4.0 mph NW6.4 kmh NW 8.0 mph12.9 kmh 29.75 in1007.5 mb 0.00 in0.0 mm 0.00 in0.0 mm 0.10 in2.5 mm
04:35 PM 79.6°F26.4°C 76.1°F24.5°C 89% 3.0 mph NW4.8 kmh NW 8.0 mph12.9 kmh 29.75 in1007.5 mb 0.00 in0.0 mm 0.00 in0.0 mm 0.10 in2.5 mm
04:40 PM 79.6°F26.4°C 76.1°F24.5°C 89% 3.0 mph NW4.8 kmh NW 9.0 mph14.5 kmh 29.75 in1007.5 mb 0.00 in0.0 mm 0.00 in0.0 mm 0.10 in2.5 mm
04:45 PM 79.7°F26.5°C 76.2°F24.6°C 89% 4.0 mph NW6.4 kmh NW 9.0 mph14.5 kmh 29.75 in1007.5 mb 0.00 in0.0 mm 0.00 in0.0 mm 0.10 in2.5 mm
04:50 PM 79.9°F26.6°C 76.0°F24.4°C 88% 4.0 mph NW6.4 kmh NW 8.0 mph12.9 kmh 29.76 in1007.8 mb 0.00 in0.0 mm 0.00 in0.0 mm 0.10 in2.5 mm
04:55 PM 80.1°F26.7°C 76.6°F24.8°C 89% 4.0 mph NW6.4 kmh NW 9.0 mph14.5 kmh 29.76 in1007.8 mb 0.00 in0.0 mm 0.00 in0.0 mm 0.10 in2.5 mm
05:00 PM 80.3°F26.8°C 76.8°F24.9°C 89% 3.0 mph NW4.8 kmh NW 9.0 mph14.5 kmh 29.75 in1007.5 mb 0.00 in0.0 mm 0.00 in0.0 mm 0.10 in2.5 mm
05:05 PM 80.7°F27.1°C 77.2°F25.1°C 89% 4.0 mph NW6.4 kmh NW 8.0 mph12.9 kmh 29.75 in1007.5 mb 0.00 in0.0 mm 0.00 in0.0 mm 0.10 in2.5 mm
05:10 PM 81.1°F27.3°C 77.2°F25.1°C 88% 4.0 mph NW6.4 kmh NW 8.0 mph12.9 kmh 29.75 in1007.5 mb 0.00 in0.0 mm 0.00 in0.0 mm 0.10 in2.5 mm
05:15 PM 81.5°F27.5°C 77.3°F25.2°C 87% 4.0 mph NW6.4 kmh NW 8.0 mph12.9 kmh 29.75 in1007.5 mb 0.00 in0.0 mm 0.00 in0.0 mm 0.10 in2.5 mm
05:20 PM 81.9°F27.7°C 76.9°F24.9°C 85% 4.0 mph NNW6.4 kmh NNW 10.0 mph16.1 kmh 29.75 in1007.5 mb 0.00 in0.0 mm 0.00 in0.0 mm 0.10 in2.5 mm
05:25 PM 82.3°F27.9°C 77.3°F25.2°C 85% 4.0 mph NNW6.4 kmh NNW 10.0 mph16.1 kmh 29.75 in1007.5 mb 0.00 in0.0 mm 0.00 in0.0 mm 0.10 in2.5 mm
05:30 PM 82.6°F28.1°C 77.3°F25.2°C 84% 4.0 mph NNW6.4 kmh NNW 11.0 mph17.7 kmh 29.75 in1007.5 mb 0.00 in0.0 mm 0.00 in0.0 mm 0.10 in2.5 mm
05:35 PM 82.7°F28.2°C 77.0°F25.0°C 83% 5.0 mph NNW8.0 kmh NNW 11.0 mph17.7 kmh 29.75 in1007.5 mb 0.00 in0.0 mm 0.00 in0.0 mm 0.10 in2.5 mm
05:40 PM 82.9°F28.3°C 77.2°F25.1°C 83% 4.0 mph N6.4 kmh N 11.0 mph17.7 kmh 29.75 in1007.5 mb 0.00 in0.0 mm 0.00 in0.0 mm 0.10 in2.5 mm
05:45 PM 83.0°F28.3°C 77.7°F25.4°C 84% 3.0 mph N4.8 kmh N 9.0 mph14.5 kmh 29.75 in1007.5 mb 0.00 in0.0 mm 0.00 in0.0 mm 0.10 in2.5 mm
05:50 PM 83.2°F28.4°C 77.5°F25.3°C 83% 3.0 mph N4.8 kmh N 9.0 mph14.5 kmh 29.75 in1007.5 mb 0.00 in0.0 mm 0.00 in0.0 mm 0.10 in2.5 mm
05:55 PM 83.2°F28.4°C 77.1°F25.1°C 82% 4.0 mph N6.4 kmh N 8.0 mph12.9 kmh 29.75 in1007.5 mb 0.00 in0.0 mm 0.00 in0.0 mm 0.10 in2.5 mm
06:00 PM 83.2°F28.4°C 76.8°F24.9°C 81% 4.0 mph N6.4 kmh N 12.0 mph19.3 kmh 29.76 in1007.8 mb 0.00 in0.0 mm 0.00 in0.0 mm 0.10 in2.5 mm
06:05 PM 83.2°F28.4°C 76.8°F24.9°C 81% 5.0 mph N8.0 kmh N 12.0 mph19.3 kmh 29.76 in1007.8 mb 0.00 in0.0 mm 0.00 in0.0 mm 0.10 in2.5 mm
06:10 PM 83.2°F28.4°C 76.4°F24.7°C 80% 5.0 mph N8.0 kmh N 13.0 mph20.9 kmh 29.76 in1007.8 mb 0.00 in0.0 mm 0.00 in0.0 mm 0.10 in2.5 mm
06:15 PM 83.2°F28.4°C 76.8°F24.9°C 81% 4.0 mph N6.4 kmh N 13.0 mph20.9 kmh 29.76 in1007.8 mb 0.00 in0.0 mm 0.00 in0.0 mm 0.10 in2.5 mm
06:20 PM 83.0°F28.3°C 76.2°F24.6°C 80% 4.0 mph N6.4 kmh N 10.0 mph16.1 kmh 29.76 in1007.8 mb 0.00 in0.0 mm 0.00 in0.0 mm 0.10 in2.5 mm
06:25 PM 82.9°F28.3°C 76.1°F24.5°C 80% 4.0 mph N6.4 kmh N 10.0 mph16.1 kmh 29.76 in1007.8 mb 0.00 in0.0 mm 0.00 in0.0 mm 0.10 in2.5 mm
06:30 PM 82.7°F28.2°C 75.9°F24.4°C 80% 4.0 mph N6.4 kmh N 8.0 mph12.9 kmh 29.76 in1007.8 mb 0.00 in0.0 mm 0.00 in0.0 mm 0.10 in2.5 mm
06:35 PM 82.5°F28.1°C 76.1°F24.5°C 81% 3.0 mph N4.8 kmh N 8.0 mph12.9 kmh 29.77 in1008.1 mb 0.00 in0.0 mm 0.00 in0.0 mm 0.10 in2.5 mm
06:40 PM 82.3°F27.9°C 75.9°F24.4°C 81% 3.0 mph N4.8 kmh N 9.0 mph14.5 kmh 29.77 in1008.1 mb 0.00 in0.0 mm 0.00 in0.0 mm 0.10 in2.5 mm
06:45 PM 82.2°F27.9°C 75.4°F24.1°C 80% 4.0 mph N6.4 kmh N 11.0 mph17.7 kmh 29.76 in1007.8 mb 0.00 in0.0 mm 0.00 in0.0 mm 0.10 in2.5 mm
06:50 PM 82.0°F27.8°C 75.6°F24.2°C 81% 4.0 mph N6.4 kmh N 11.0 mph17.7 kmh 29.76 in1007.8 mb 0.00 in0.0 mm 0.00 in0.0 mm 0.10 in2.5 mm
06:55 PM 81.8°F27.7°C 75.4°F24.1°C 81% 3.0 mph N4.8 kmh N 10.0 mph16.1 kmh 29.77 in1008.1 mb 0.00 in0.0 mm 0.00 in0.0 mm 0.10 in2.5 mm
07:00 PM 81.6°F27.6°C 75.6°F24.2°C 82% 3.0 mph N4.8 kmh N 8.0 mph12.9 kmh 29.77 in1008.1 mb 0.00 in0.0 mm 0.00 in0.0 mm 0.10 in2.5 mm
07:05 PM 81.3°F27.4°C 75.3°F24.1°C 82% 3.0 mph NNW4.8 kmh NNW 8.0 mph12.9 kmh 29.77 in1008.1 mb 0.00 in0.0 mm 0.00 in0.0 mm 0.10 in2.5 mm
07:10 PM 81.1°F27.3°C 75.1°F23.9°C 82% 3.0 mph N4.8 kmh N 8.0 mph12.9 kmh 29.77 in1008.1 mb 0.00 in0.0 mm 0.00 in0.0 mm 0.10 in2.5 mm
07:15 PM 80.9°F27.2°C 74.9°F23.8°C 82% 3.0 mph N4.8 kmh N 8.0 mph12.9 kmh 29.77 in1008.1 mb 0.00 in0.0 mm 0.00 in0.0 mm 0.10 in2.5 mm
07:20 PM 80.7°F27.1°C 74.7°F23.7°C 82% 3.0 mph NNW4.8 kmh NNW 8.0 mph12.9 kmh 29.77 in1008.1 mb 0.00 in0.0 mm 0.00 in0.0 mm 0.10 in2.5 mm
07:25 PM 80.5°F26.9°C 74.5°F23.6°C 82% 3.0 mph NNW4.8 kmh NNW 8.0 mph12.9 kmh 29.77 in1008.1 mb 0.00 in0.0 mm 0.00 in0.0 mm 0.10 in2.5 mm
07:30 PM 80.4°F26.9°C 74.8°F23.8°C 83% 3.0 mph NNW4.8 kmh NNW 8.0 mph12.9 kmh 29.77 in1008.1 mb 0.00 in0.0 mm 0.00 in0.0 mm 0.10 in2.5 mm
07:35 PM 80.3°F26.8°C 74.7°F23.7°C 83% 3.0 mph NNW4.8 kmh NNW 6.0 mph9.7 kmh 29.77 in1008.1 mb 0.00 in0.0 mm 0.00 in0.0 mm 0.10 in2.5 mm
07:40 PM 80.2°F26.8°C 74.6°F23.7°C 83% 3.0 mph N4.8 kmh N 5.0 mph8.0 kmh 29.77 in1008.1 mb 0.00 in0.0 mm 0.00 in0.0 mm 0.10 in2.5 mm
07:45 PM 80.1°F26.7°C 74.5°F23.6°C 83% 2.0 mph N3.2 kmh N 5.0 mph8.0 kmh 29.78 in1008.5 mb 0.00 in0.0 mm 0.00 in0.0 mm 0.10 in2.5 mm
07:50 PM 80.0°F26.7°C 74.4°F23.6°C 83% 2.0 mph N3.2 kmh N 7.0 mph11.3 kmh 29.78 in1008.5 mb 0.00 in0.0 mm 0.00 in0.0 mm 0.10 in2.5 mm
07:55 PM 79.9°F26.6°C 74.6°F23.7°C 84% 2.0 mph N3.2 kmh N 7.0 mph11.3 kmh 29.78 in1008.5 mb 0.00 in0.0 mm 0.00 in0.0 mm 0.10 in2.5 mm
08:00 PM 80.0°F26.7°C 74.4°F23.6°C 83% 3.0 mph N4.8 kmh N 8.0 mph12.9 kmh 29.78 in1008.5 mb 0.00 in0.0 mm 0.00 in0.0 mm 0.10 in2.5 mm
08:05 PM 80.0°F26.7°C 74.7°F23.7°C 84% 3.0 mph N4.8 kmh N 8.0 mph12.9 kmh 29.78 in1008.5 mb 0.00 in0.0 mm 0.00 in0.0 mm 0.10 in2.5 mm
08:10 PM 79.9°F26.6°C 74.6°F23.7°C 84% 3.0 mph N4.8 kmh N 7.0 mph11.3 kmh 29.78 in1008.5 mb 0.00 in0.0 mm 0.00 in0.0 mm 0.10 in2.5 mm
08:15 PM 79.8°F26.6°C 74.5°F23.6°C 84% 3.0 mph N4.8 kmh N 8.0 mph12.9 kmh 29.79 in1008.8 mb 0.00 in0.0 mm 0.00 in0.0 mm 0.10 in2.5 mm
08:20 PM 79.7°F26.5°C 74.4°F23.6°C 84% 3.0 mph N4.8 kmh N 9.0 mph14.5 kmh 29.79 in1008.8 mb 0.00 in0.0 mm 0.00 in0.0 mm 0.10 in2.5 mm
08:25 PM 79.7°F26.5°C 74.4°F23.6°C 84% 3.0 mph N4.8 kmh N 9.0 mph14.5 kmh 29.79 in1008.8 mb 0.00 in0.0 mm 0.00 in0.0 mm 0.10 in2.5 mm
08:30 PM 79.6°F26.4°C 74.3°F23.5°C 84% 3.0 mph N4.8 kmh N 9.0 mph14.5 kmh 29.79 in1008.8 mb 0.00 in0.0 mm 0.00 in0.0 mm 0.10 in2.5 mm
08:35 PM 79.5°F26.4°C 74.6°F23.7°C 85% 3.0 mph N4.8 kmh N 9.0 mph14.5 kmh 29.79 in1008.8 mb 0.00 in0.0 mm 0.00 in0.0 mm 0.10 in2.5 mm
08:40 PM 79.4°F26.3°C 74.5°F23.6°C 85% 3.0 mph N4.8 kmh N 9.0 mph14.5 kmh 29.80 in1009.1 mb 0.00 in0.0 mm 0.00 in0.0 mm 0.10 in2.5 mm
08:45 PM 79.4°F26.3°C 74.5°F23.6°C 85% 3.0 mph N4.8 kmh N 10.0 mph16.1 kmh 29.80 in1009.1 mb 0.00 in0.0 mm 0.00 in0.0 mm 0.10 in2.5 mm
08:50 PM 79.4°F26.3°C 74.5°F23.6°C 85% 3.0 mph N4.8 kmh N 10.0 mph16.1 kmh 29.80 in1009.1 mb 0.00 in0.0 mm 0.00 in0.0 mm 0.10 in2.5 mm
08:55 PM 79.4°F26.3°C 74.5°F23.6°C 85% 4.0 mph N6.4 kmh N 9.0 mph14.5 kmh 29.80 in1009.1 mb 0.00 in0.0 mm 0.00 in0.0 mm 0.10 in2.5 mm
09:00 PM 79.4°F26.3°C 74.5°F23.6°C 85% 4.0 mph N6.4 kmh N 9.0 mph14.5 kmh 29.80 in1009.1 mb 0.00 in0.0 mm 0.00 in0.0 mm 0.10 in2.5 mm
09:05 PM 79.4°F26.3°C 74.5°F23.6°C 85% 3.0 mph N4.8 kmh N 9.0 mph14.5 kmh 29.80 in1009.1 mb 0.00 in0.0 mm 0.00 in0.0 mm 0.10 in2.5 mm
09:10 PM 79.2°F26.2°C 74.3°F23.5°C 85% 3.0 mph N4.8 kmh N 8.0 mph12.9 kmh 29.80 in1009.1 mb 0.00 in0.0 mm 0.00 in0.0 mm 0.10 in2.5 mm
09:15 PM 79.1°F26.2°C 74.5°F23.6°C 86% 3.0 mph N4.8 kmh N 8.0 mph12.9 kmh 29.80 in1009.1 mb 0.00 in0.0 mm 0.00 in0.0 mm 0.10 in2.5 mm
09:20 PM 79.0°F26.1°C 74.5°F23.6°C 86% 3.0 mph N4.8 kmh N 6.0 mph9.7 kmh 29.80 in1009.1 mb 0.00 in0.0 mm 0.00 in0.0 mm 0.10 in2.5 mm
09:25 PM 79.0°F26.1°C 74.5°F23.6°C 86% 3.0 mph N4.8 kmh N 9.0 mph14.5 kmh 29.80 in1009.1 mb 0.00 in0.0 mm 0.00 in0.0 mm 0.10 in2.5 mm
09:30 PM 79.0°F26.1°C 74.5°F23.6°C 86% 3.0 mph N4.8 kmh N 9.0 mph14.5 kmh 29.80 in1009.1 mb 0.00 in0.0 mm 0.00 in0.0 mm 0.10 in2.5 mm
09:35 PM 79.0°F26.1°C 74.5°F23.6°C 86% 3.0 mph N4.8 kmh N 8.0 mph12.9 kmh 29.79 in1008.8 mb 0.00 in0.0 mm 0.00 in0.0 mm 0.10 in2.5 mm
09:40 PM 78.9°F26.1°C 74.4°F23.6°C 86% 4.0 mph N6.4 kmh N 8.0 mph12.9 kmh 29.79 in1008.8 mb 0.00 in0.0 mm 0.00 in0.0 mm 0.10 in2.5 mm
09:45 PM 78.9°F26.1°C 74.4°F23.6°C 86% 3.0 mph NNW4.8 kmh NNW 8.0 mph12.9 kmh 29.80 in1009.1 mb 0.00 in0.0 mm 0.00 in0.0 mm 0.10 in2.5 mm
09:50 PM 78.9°F26.1°C 74.4°F23.6°C 86% 3.0 mph NNW4.8 kmh NNW 10.0 mph16.1 kmh 29.79 in1008.8 mb 0.00 in0.0 mm 0.00 in0.0 mm 0.10 in2.5 mm
09:55 PM 78.8°F26.0°C 74.3°F23.5°C 86% 3.0 mph N4.8 kmh N 10.0 mph16.1 kmh 29.80 in1009.1 mb 0.00 in0.0 mm 0.00 in0.0 mm 0.10 in2.5 mm
10:00 PM 78.7°F25.9°C 74.2°F23.4°C 86% 3.0 mph NNW4.8 kmh NNW 9.0 mph14.5 kmh 29.79 in1008.8 mb 0.00 in0.0 mm 0.00 in0.0 mm 0.10 in2.5 mm
10:05 PM 78.8°F26.0°C 74.3°F23.5°C 86% 4.0 mph N6.4 kmh N 11.0 mph17.7 kmh 29.79 in1008.8 mb 0.00 in0.0 mm 0.00 in0.0 mm 0.10 in2.5 mm
10:10 PM 78.8°F26.0°C 74.3°F23.5°C 86% 4.0 mph N6.4 kmh N 11.0 mph17.7 kmh 29.79 in1008.8 mb 0.00 in0.0 mm 0.00 in0.0 mm 0.10 in2.5 mm
10:15 PM 78.8°F26.0°C 74.3°F23.5°C 86% 3.0 mph N4.8 kmh N 9.0 mph14.5 kmh 29.80 in1009.1 mb 0.00 in0.0 mm 0.00 in0.0 mm 0.10 in2.5 mm
10:20 PM 78.8°F26.0°C 74.3°F23.5°C 86% 4.0 mph N6.4 kmh N 9.0 mph14.5 kmh 29.79 in1008.8 mb 0.00 in0.0 mm 0.00 in0.0 mm 0.10 in2.5 mm
10:25 PM 78.8°F26.0°C 74.3°F23.5°C 86% 4.0 mph N6.4 kmh N 9.0 mph14.5 kmh 29.79 in1008.8 mb 0.00 in0.0 mm 0.00 in0.0 mm 0.10 in2.5 mm
10:30 PM 78.9°F26.1°C 74.4°F23.6°C 86% 4.0 mph N6.4 kmh N 9.0 mph14.5 kmh 29.79 in1008.8 mb 0.00 in0.0 mm 0.00 in0.0 mm 0.10 in2.5 mm
10:35 PM 78.8°F26.0°C 74.6°F23.7°C 87% 3.0 mph N4.8 kmh N 7.0 mph11.3 kmh 29.79 in1008.8 mb 0.00 in0.0 mm 0.00 in0.0 mm 0.10 in2.5 mm
10:40 PM 78.7°F25.9°C 74.5°F23.6°C 87% 3.0 mph N4.8 kmh N 8.0 mph12.9 kmh 29.79 in1008.8 mb 0.00 in0.0 mm 0.00 in0.0 mm 0.10 in2.5 mm
10:45 PM 78.7°F25.9°C 74.5°F23.6°C 87% 4.0 mph N6.4 kmh N 9.0 mph14.5 kmh 29.79 in1008.8 mb 0.00 in0.0 mm 0.00 in0.0 mm 0.10 in2.5 mm
10:50 PM 78.7°F25.9°C 74.5°F23.6°C 87% 4.0 mph N6.4 kmh N 10.0 mph16.1 kmh 29.79 in1008.8 mb 0.00 in0.0 mm 0.00 in0.0 mm 0.10 in2.5 mm
10:55 PM 78.6°F25.9°C 74.4°F23.6°C 87% 3.0 mph N4.8 kmh N 10.0 mph16.1 kmh 29.79 in1008.8 mb 0.00 in0.0 mm 0.00 in0.0 mm 0.10 in2.5 mm
11:00 PM 78.6°F25.9°C 74.4°F23.6°C 87% 3.0 mph N4.8 kmh N 8.0 mph12.9 kmh 29.79 in1008.8 mb 0.00 in0.0 mm 0.00 in0.0 mm 0.10 in2.5 mm
11:05 PM 78.6°F25.9°C 74.4°F23.6°C 87% 4.0 mph NNW6.4 kmh NNW 8.0 mph12.9 kmh 29.79 in1008.8 mb 0.00 in0.0 mm 0.00 in0.0 mm 0.10 in2.5 mm
11:10 PM 78.6°F25.9°C 74.4°F23.6°C 87% 3.0 mph N4.8 kmh N 8.0 mph12.9 kmh 29.79 in1008.8 mb 0.00 in0.0 mm 0.00 in0.0 mm 0.10 in2.5 mm
11:15 PM 78.5°F25.8°C 74.3°F23.5°C 87% 3.0 mph N4.8 kmh N 7.0 mph11.3 kmh 29.79 in1008.8 mb 0.00 in0.0 mm 0.00 in0.0 mm 0.10 in2.5 mm
11:20 PM 78.5°F25.8°C 74.3°F23.5°C 87% 3.0 mph N4.8 kmh N 9.0 mph14.5 kmh 29.79 in1008.8 mb 0.00 in0.0 mm 0.00 in0.0 mm 0.10 in2.5 mm
11:25 PM 78.5°F25.8°C 74.3°F23.5°C 87% 3.0 mph N4.8 kmh N 9.0 mph14.5 kmh 29.79 in1008.8 mb 0.00 in0.0 mm 0.00 in0.0 mm 0.10 in2.5 mm
11:30 PM 78.4°F25.8°C 74.5°F23.6°C 88% 3.0 mph N4.8 kmh N 6.0 mph9.7 kmh 29.78 in1008.5 mb 0.00 in0.0 mm 0.00 in0.0 mm 0.10 in2.5 mm
11:35 PM 78.4°F25.8°C 74.5°F23.6°C 88% 3.0 mph N4.8 kmh N 11.0 mph17.7 kmh 29.78 in1008.5 mb 0.00 in0.0 mm 0.00 in0.0 mm 0.10 in2.5 mm
11:40 PM 78.4°F25.8°C 74.5°F23.6°C 88% 3.0 mph N4.8 kmh N 11.0 mph17.7 kmh 29.78 in1008.5 mb 0.00 in0.0 mm 0.00 in0.0 mm 0.10 in2.5 mm
11:45 PM 78.4°F25.8°C 74.5°F23.6°C 88% 3.0 mph N4.8 kmh N 11.0 mph17.7 kmh 29.77 in1008.1 mb 0.00 in0.0 mm 0.00 in0.0 mm 0.10 in2.5 mm
11:50 PM 78.4°F25.8°C 74.5°F23.6°C 88% 3.0 mph N4.8 kmh N 6.0 mph9.7 kmh 29.77 in1008.1 mb 0.00 in0.0 mm 0.00 in0.0 mm 0.10 in2.5 mm
11:55 PM 78.4°F25.8°C 74.5°F23.6°C 88% 3.0 mph N4.8 kmh N 6.0 mph9.7 kmh 29.77 in1008.1 mb 0.00 in0.0 mm 0.00 in0.0 mm 0.10 in2.5 mm